createdAt,value
2018-10-05T00:00:46.952Z,5.90
2018-10-05T00:01:46.949Z,5.60
2018-10-05T00:02:48.730Z,5.40
2018-10-05T00:03:48.804Z,5.00
2018-10-05T00:04:47.080Z,5.30
2018-10-05T00:05:48.616Z,5.50
2018-10-05T00:06:46.932Z,5.40
2018-10-05T00:07:46.910Z,5.50
2018-10-05T00:08:47.293Z,5.60
2018-10-05T00:09:46.916Z,5.50
2018-10-05T00:10:46.903Z,5.40
2018-10-05T00:11:50.638Z,5.50
2018-10-05T00:12:46.898Z,5.40
2018-10-05T00:13:46.932Z,5.30
2018-10-05T00:14:46.889Z,5.20
2018-10-05T00:15:46.880Z,5.50
2018-10-05T00:16:49.763Z,5.50
2018-10-05T00:17:46.898Z,5.30
2018-10-05T00:18:46.887Z,5.50
2018-10-05T00:19:49.641Z,5.10
2018-10-05T00:20:47.191Z,5.10
2018-10-05T00:21:46.852Z,5.30
2018-10-05T00:22:46.859Z,5.60
2018-10-05T00:23:46.881Z,5.80
2018-10-05T00:24:46.833Z,5.80
2018-10-05T00:25:46.830Z,5.60
2018-10-05T00:26:46.831Z,5.60
2018-10-05T00:27:46.812Z,6.10
2018-10-05T00:28:46.842Z,5.60
2018-10-05T00:29:46.818Z,5.70
2018-10-05T00:30:46.814Z,5.40
2018-10-05T00:31:46.814Z,5.60
2018-10-05T00:32:46.817Z,5.50
2018-10-05T00:33:46.870Z,5.60
2018-10-05T00:34:46.803Z,5.40
2018-10-05T00:35:46.811Z,6.40
2018-10-05T00:36:46.774Z,6.10
2018-10-05T00:37:46.782Z,6.00
2018-10-05T00:38:46.822Z,6.00
2018-10-05T00:39:46.767Z,6.30
2018-10-05T00:40:46.770Z,6.40
2018-10-05T00:41:46.777Z,5.80
2018-10-05T00:42:46.781Z,6.70
2018-10-05T00:43:46.769Z,6.40
2018-10-05T00:44:46.758Z,6.70
2018-10-05T00:45:46.762Z,6.70
2018-10-05T00:46:46.745Z,7.00
2018-10-05T00:47:46.763Z,6.50
2018-10-05T00:48:46.740Z,6.10
2018-10-05T00:49:46.723Z,6.60
2018-10-05T00:50:46.735Z,7.20
2018-10-05T00:51:46.725Z,7.40
2018-10-05T00:52:46.750Z,6.90
2018-10-05T00:53:46.720Z,6.90
2018-10-05T00:54:46.759Z,6.80
2018-10-05T00:55:46.689Z,7.30
2018-10-05T00:56:46.706Z,7.20
2018-10-05T00:57:46.712Z,7.20
2018-10-05T00:58:46.748Z,7.00
2018-10-05T00:59:46.697Z,7.50
2018-10-05T01:00:46.697Z,8.10
2018-10-05T01:01:46.722Z,8.00
2018-10-05T01:02:46.685Z,7.40
2018-10-05T01:03:46.669Z,7.90
2018-10-05T01:04:46.670Z,7.70
2018-10-05T01:05:46.682Z,7.30
2018-10-05T01:06:46.646Z,7.40
2018-10-05T01:07:46.681Z,7.50
2018-10-05T01:08:46.647Z,7.50
2018-10-05T01:09:46.645Z,7.50
2018-10-05T01:10:46.656Z,7.50
2018-10-05T01:11:46.663Z,7.70
2018-10-05T01:12:46.621Z,8.00
2018-10-05T01:13:46.620Z,7.30
2018-10-05T01:14:46.604Z,8.30
2018-10-05T01:15:46.604Z,8.70
2018-10-05T01:16:46.616Z,8.00
2018-10-05T01:17:46.623Z,7.50
2018-10-05T01:18:46.585Z,7.60
2018-10-05T01:19:46.610Z,7.60
2018-10-05T01:20:46.574Z,8.30
2018-10-05T01:21:46.564Z,8.30
2018-10-05T01:22:46.586Z,7.60
2018-10-05T01:23:46.562Z,7.80
2018-10-05T01:24:46.624Z,7.90
2018-10-05T01:25:46.575Z,7.80
2018-10-05T01:26:46.588Z,7.90
2018-10-05T01:27:46.563Z,7.90
2018-10-05T01:28:46.545Z,7.80
2018-10-05T01:29:46.562Z,7.80
2018-10-05T01:30:46.537Z,8.10
2018-10-05T01:31:46.578Z,7.30
2018-10-05T01:32:46.521Z,8.50
2018-10-05T01:33:46.519Z,8.00
2018-10-05T01:34:46.521Z,8.30
2018-10-05T01:35:46.502Z,8.60
2018-10-05T01:36:46.522Z,8.70
2018-10-05T01:37:46.509Z,7.70
2018-10-05T01:38:46.564Z,7.70
2018-10-05T01:39:46.475Z,8.20
2018-10-05T01:40:46.487Z,8.00
2018-10-05T01:41:46.486Z,8.30
2018-10-05T01:42:46.507Z,8.00
2018-10-05T01:43:46.470Z,8.30
2018-10-05T01:44:46.467Z,8.60
2018-10-05T01:45:46.473Z,8.70
2018-10-05T01:46:46.447Z,8.70
2018-10-05T01:47:48.319Z,8.40
2018-10-05T01:48:46.452Z,8.70
2018-10-05T01:49:46.445Z,8.20
2018-10-05T01:50:46.436Z,9.40
2018-10-05T01:51:46.426Z,8.50
2018-10-05T01:52:46.451Z,8.20
2018-10-05T01:53:46.463Z,9.10
2018-10-05T01:54:46.439Z,8.90
2018-10-05T01:55:46.428Z,8.20
2018-10-05T01:56:46.416Z,8.30
2018-10-05T01:57:46.442Z,8.60
2018-10-05T01:58:46.418Z,9.00
2018-10-05T01:59:46.412Z,9.50
2018-10-05T02:00:46.405Z,9.90
2018-10-05T02:01:46.384Z,9.60
2018-10-05T02:02:46.408Z,9.10
2018-10-05T02:03:46.382Z,8.80
2018-10-05T02:04:46.371Z,9.20
2018-10-05T02:05:46.370Z,9.20
2018-10-05T02:06:46.376Z,8.90
2018-10-05T02:07:46.372Z,8.90
2018-10-05T02:08:46.340Z,9.00
2018-10-05T02:09:46.358Z,7.80
2018-10-05T02:10:46.349Z,8.40
2018-10-05T02:11:46.360Z,7.70
2018-10-05T02:12:46.336Z,8.40
2018-10-05T02:13:46.315Z,8.00
2018-10-05T02:14:46.331Z,8.20
2018-10-05T02:15:46.326Z,8.30
2018-10-05T02:16:46.346Z,8.40
2018-10-05T02:17:46.308Z,8.80
2018-10-05T02:18:46.302Z,9.00
2018-10-05T02:19:46.298Z,9.30
2018-10-05T02:20:46.328Z,9.60
2018-10-05T02:21:46.333Z,8.90
2018-10-05T02:22:46.293Z,9.30
2018-10-05T02:23:46.278Z,8.80
2018-10-05T02:24:46.267Z,8.30
2018-10-05T02:25:46.283Z,8.10
2018-10-05T02:26:46.308Z,8.70
2018-10-05T02:27:46.287Z,7.90
2018-10-05T02:28:46.268Z,8.20
2018-10-05T02:29:46.245Z,8.90
2018-10-05T02:30:46.295Z,8.60
2018-10-05T02:31:46.251Z,9.70
2018-10-05T02:32:46.268Z,8.90
2018-10-05T02:33:46.244Z,9.40
2018-10-05T02:34:46.243Z,10.00
2018-10-05T02:35:46.262Z,9.20
2018-10-05T02:36:46.263Z,9.50
2018-10-05T02:37:46.211Z,9.00
2018-10-05T02:38:46.211Z,8.90
2018-10-05T02:39:46.226Z,8.70
2018-10-05T02:40:46.192Z,10.30
2018-10-05T02:41:46.247Z,9.40
2018-10-05T02:42:46.194Z,10.20
2018-10-05T02:43:46.197Z,10.20
2018-10-05T02:44:46.179Z,10.00
2018-10-05T02:45:46.191Z,10.10
2018-10-05T02:46:46.222Z,9.90
2018-10-05T02:47:46.178Z,9.40
2018-10-05T02:48:46.156Z,9.50
2018-10-05T02:49:46.160Z,9.90
2018-10-05T02:50:46.156Z,9.30
2018-10-05T02:51:46.155Z,9.20
2018-10-05T02:52:46.143Z,9.70
2018-10-05T02:53:46.119Z,9.80
2018-10-05T02:54:46.115Z,9.40
2018-10-05T02:55:46.113Z,10.10
2018-10-05T02:56:46.159Z,10.50
2018-10-05T02:57:46.172Z,10.20
2018-10-05T02:58:46.123Z,10.40
2018-10-05T02:59:46.097Z,10.10
2018-10-05T03:00:46.083Z,10.40
2018-10-05T03:01:46.092Z,11.30
2018-10-05T03:02:46.105Z,10.70
2018-10-05T03:03:46.085Z,10.70
2018-10-05T03:04:46.068Z,9.40
2018-10-05T03:05:46.059Z,9.20
2018-10-05T03:06:46.113Z,8.90
2018-10-05T03:07:46.081Z,9.50
2018-10-05T03:08:46.089Z,9.70
2018-10-05T03:09:46.056Z,8.70
2018-10-05T03:10:46.060Z,8.80
2018-10-05T03:11:46.074Z,9.10
2018-10-05T03:12:46.075Z,9.70
2018-10-05T03:13:46.057Z,10.00
2018-10-05T03:14:46.029Z,9.10
2018-10-05T03:15:46.035Z,9.30
2018-10-05T03:16:46.047Z,9.00
2018-10-05T03:17:46.039Z,9.10
2018-10-05T03:18:46.028Z,8.90
2018-10-05T03:19:46.048Z,9.10
2018-10-05T03:20:46.004Z,9.60
2018-10-05T03:21:46.016Z,9.30
2018-10-05T03:22:46.026Z,10.30
2018-10-05T03:23:45.994Z,10.70
2018-10-05T03:24:45.977Z,10.90
2018-10-05T03:25:45.967Z,9.80
2018-10-05T03:26:45.979Z,11.40
2018-10-05T03:27:46.001Z,12.30
2018-10-05T03:28:45.962Z,11.60
2018-10-05T03:29:45.960Z,11.30
2018-10-05T03:30:45.960Z,10.90
2018-10-05T03:31:45.950Z,18.00
2018-10-05T03:32:45.969Z,25.80
2018-10-05T03:33:45.943Z,25.60
2018-10-05T03:34:45.920Z,18.60
2018-10-05T03:35:45.938Z,12.10
2018-10-05T03:36:45.931Z,14.40
2018-10-05T03:37:45.975Z,16.40
2018-10-05T03:38:45.914Z,13.40
2018-10-05T03:39:45.917Z,12.80
2018-10-05T03:40:45.907Z,11.30
2018-10-05T03:41:45.903Z,11.80
2018-10-05T03:42:45.910Z,11.90
2018-10-05T03:43:45.921Z,11.00
2018-10-05T03:44:45.902Z,10.80
2018-10-05T03:45:45.894Z,10.10
2018-10-05T03:46:45.887Z,9.90
2018-10-05T03:47:45.886Z,9.20
2018-10-05T03:48:45.863Z,9.50
2018-10-05T03:49:45.859Z,10.40
2018-10-05T03:50:45.868Z,12.50
2018-10-05T03:51:45.831Z,12.20
2018-10-05T03:52:45.865Z,11.40
2018-10-05T03:53:45.846Z,10.60
2018-10-05T03:54:45.840Z,10.60
2018-10-05T03:55:45.837Z,10.70
2018-10-05T03:56:45.828Z,10.60
2018-10-05T03:57:45.840Z,10.50
2018-10-05T03:58:45.817Z,10.50
2018-10-05T03:59:45.796Z,10.60
2018-10-05T04:00:45.807Z,9.90
2018-10-05T04:01:45.820Z,11.50
2018-10-05T04:02:45.819Z,11.20
2018-10-05T04:03:45.791Z,10.30
2018-10-05T04:04:45.777Z,10.40
2018-10-05T04:05:45.768Z,11.40
2018-10-05T04:06:45.772Z,12.10
2018-10-05T04:07:45.792Z,12.40
2018-10-05T04:08:45.767Z,11.60
2018-10-05T04:09:45.758Z,10.90
2018-10-05T04:10:45.755Z,10.10
2018-10-05T04:11:45.739Z,10.90
2018-10-05T04:12:45.753Z,10.40
2018-10-05T04:13:45.754Z,10.90
2018-10-05T04:14:45.735Z,10.30
2018-10-05T04:15:45.734Z,10.70
2018-10-05T04:16:45.705Z,10.40
2018-10-05T04:17:45.716Z,10.60
2018-10-05T04:18:45.859Z,10.40
2018-10-05T04:19:45.705Z,13.00
2018-10-05T04:20:45.696Z,11.80
2018-10-05T04:21:45.714Z,11.60
2018-10-05T04:22:45.687Z,11.10
2018-10-05T04:23:45.702Z,10.80
2018-10-05T04:24:45.672Z,11.20
2018-10-05T04:25:45.685Z,11.40
2018-10-05T04:26:45.678Z,11.30
2018-10-05T04:27:45.657Z,10.80
2018-10-05T04:28:45.676Z,11.40
2018-10-05T04:29:45.685Z,15.60
2018-10-05T04:30:45.641Z,15.60
2018-10-05T04:31:45.626Z,13.50
2018-10-05T04:32:45.628Z,12.00
2018-10-05T04:33:45.674Z,11.10
2018-10-05T04:34:45.622Z,11.50
2018-10-05T04:35:45.704Z,12.30
2018-10-05T04:36:45.671Z,11.50
2018-10-05T04:37:45.617Z,12.10
2018-10-05T04:38:45.654Z,11.90
2018-10-05T04:39:45.595Z,12.00
2018-10-05T04:40:45.584Z,13.00
2018-10-05T04:41:45.589Z,11.60
2018-10-05T04:42:45.566Z,11.60
2018-10-05T04:43:45.595Z,11.10
2018-10-05T04:44:45.574Z,11.30
2018-10-05T04:45:45.591Z,11.60
2018-10-05T04:46:46.132Z,11.00
2018-10-05T04:47:45.560Z,10.40
2018-10-05T04:48:45.580Z,11.10
2018-10-05T04:49:45.599Z,11.00
2018-10-05T04:50:45.540Z,10.90
2018-10-05T04:51:45.566Z,10.40
2018-10-05T04:52:45.527Z,12.20
2018-10-05T04:53:45.544Z,11.60
2018-10-05T04:54:45.504Z,11.30
2018-10-05T04:55:45.506Z,11.10
2018-10-05T04:56:45.548Z,11.40
2018-10-05T04:57:45.500Z,11.80
2018-10-05T04:58:45.517Z,11.70
2018-10-05T04:59:45.489Z,11.20
2018-10-05T05:00:45.505Z,14.10
2018-10-05T05:01:45.482Z,13.00
2018-10-05T05:02:45.468Z,13.00
2018-10-05T05:03:45.486Z,10.90
2018-10-05T05:04:45.457Z,12.50
2018-10-05T05:05:45.456Z,11.60
2018-10-05T05:06:45.460Z,12.50
2018-10-05T05:07:45.467Z,13.10
2018-10-05T05:08:45.463Z,13.20
2018-10-05T05:09:45.450Z,13.60
2018-10-05T05:10:45.432Z,13.00
2018-10-05T05:11:45.427Z,13.20
2018-10-05T05:12:45.413Z,12.50
2018-10-05T05:13:45.448Z,13.20
2018-10-05T05:14:45.422Z,13.00
2018-10-05T05:15:45.399Z,12.80
2018-10-05T05:16:45.393Z,13.10
2018-10-05T05:17:45.386Z,12.60
2018-10-05T05:18:45.400Z,12.30
2018-10-05T05:19:45.483Z,14.10
2018-10-05T05:20:45.379Z,13.40
2018-10-05T05:21:45.401Z,13.20
2018-10-05T05:22:45.359Z,14.10
2018-10-05T05:23:45.404Z,13.30
2018-10-05T05:24:45.341Z,14.30
2018-10-05T05:25:45.350Z,13.20
2018-10-05T05:26:45.363Z,13.60
2018-10-05T05:27:45.364Z,14.00
2018-10-05T05:28:45.367Z,14.30
2018-10-05T05:29:45.325Z,13.60
2018-10-05T05:30:45.336Z,12.50
2018-10-05T05:31:45.311Z,12.50
2018-10-05T05:32:45.353Z,12.90
2018-10-05T05:33:45.332Z,12.60
2018-10-05T05:34:45.328Z,13.00
2018-10-05T05:35:45.297Z,14.40
2018-10-05T05:36:45.284Z,13.70
2018-10-05T05:37:45.278Z,13.30
2018-10-05T05:38:45.308Z,13.60
2018-10-05T05:39:45.280Z,15.40
2018-10-05T05:40:45.276Z,14.30
2018-10-05T05:41:45.253Z,16.30
2018-10-05T05:42:45.291Z,15.70
2018-10-05T05:43:45.288Z,16.50
2018-10-05T05:44:45.277Z,16.10
2018-10-05T05:45:45.256Z,17.00
2018-10-05T05:46:45.430Z,15.50
2018-10-05T05:47:45.282Z,15.10
2018-10-05T05:48:45.285Z,17.80
2018-10-05T05:49:45.267Z,18.30
2018-10-05T05:50:45.213Z,17.40
2018-10-05T05:51:45.214Z,16.40
2018-10-05T05:52:45.206Z,15.90
2018-10-05T05:53:45.228Z,14.70
2018-10-05T05:54:45.197Z,14.40
2018-10-05T05:55:45.215Z,15.10
2018-10-05T05:56:45.186Z,14.50
2018-10-05T05:57:45.309Z,13.60
2018-10-05T05:58:45.252Z,14.30
2018-10-05T05:59:46.132Z,13.80
2018-10-05T06:00:45.291Z,14.00
2018-10-05T06:01:45.159Z,14.10
2018-10-05T06:02:45.157Z,13.70
2018-10-05T06:03:45.234Z,14.50
2018-10-05T06:04:45.136Z,13.50
2018-10-05T06:05:45.145Z,13.30
2018-10-05T06:06:45.154Z,13.60
2018-10-05T06:07:45.129Z,13.20
2018-10-05T06:08:45.162Z,13.90
2018-10-05T06:09:45.349Z,13.10
2018-10-05T06:10:46.634Z,13.90
2018-10-05T06:11:45.838Z,13.70
2018-10-05T06:12:45.819Z,14.20
2018-10-05T06:13:45.189Z,15.20
2018-10-05T06:14:45.101Z,14.90
2018-10-05T06:15:51.835Z,16.10
2018-10-05T06:16:45.093Z,16.70
2018-10-05T06:17:45.092Z,16.60
2018-10-05T06:18:45.107Z,17.30
2018-10-05T06:19:45.075Z,17.00
2018-10-05T06:20:45.058Z,17.40
2018-10-05T06:21:45.220Z,12.80
2018-10-05T06:22:45.058Z,13.10
2018-10-05T06:23:45.084Z,12.00
2018-10-05T06:24:45.058Z,12.20
2018-10-05T06:25:45.036Z,12.30
2018-10-05T06:26:45.046Z,12.30
2018-10-05T06:27:45.068Z,12.00
2018-10-05T06:28:45.075Z,12.10
2018-10-05T06:29:45.046Z,12.30
2018-10-05T06:30:45.060Z,11.20
2018-10-05T06:31:45.054Z,13.20
2018-10-05T06:32:45.024Z,12.00
2018-10-05T06:33:45.056Z,11.90
2018-10-05T06:34:45.045Z,11.10
2018-10-05T06:35:45.029Z,10.70
2018-10-05T06:36:45.019Z,10.80
2018-10-05T06:37:45.036Z,8.40
2018-10-05T06:38:45.032Z,8.30
2018-10-05T06:39:44.999Z,8.20
2018-10-05T06:40:45.008Z,7.70
2018-10-05T06:41:45.016Z,7.80
2018-10-05T06:42:45.031Z,7.70
2018-10-05T06:43:45.012Z,8.00
2018-10-05T06:44:45.000Z,8.00
2018-10-05T06:45:45.023Z,8.50
2018-10-05T06:46:45.013Z,7.90
2018-10-05T06:47:45.041Z,7.70
2018-10-05T06:48:45.011Z,7.60
2018-10-05T06:49:45.033Z,7.80
2018-10-05T06:50:44.997Z,7.10
2018-10-05T06:51:45.012Z,7.30
2018-10-05T06:52:45.031Z,7.10
2018-10-05T06:53:44.991Z,6.80
2018-10-05T06:54:45.000Z,6.70
2018-10-05T06:55:44.989Z,6.80
2018-10-05T06:56:45.022Z,7.30
2018-10-05T06:57:45.781Z,8.30
2018-10-05T06:58:45.019Z,7.30
2018-10-05T06:59:45.008Z,7.00
2018-10-05T07:00:45.016Z,6.90
2018-10-05T07:01:45.043Z,7.20
2018-10-05T07:02:45.058Z,7.40
2018-10-05T07:03:44.994Z,6.30
2018-10-05T07:04:45.045Z,6.40
2018-10-05T07:05:44.995Z,6.30
2018-10-05T07:06:45.018Z,6.80
2018-10-05T07:07:45.041Z,6.40
2018-10-05T07:08:45.043Z,6.20
2018-10-05T07:09:45.005Z,5.80
2018-10-05T07:10:45.003Z,6.10
2018-10-05T07:11:45.002Z,6.40
2018-10-05T07:12:45.000Z,5.70
2018-10-05T07:13:45.042Z,5.60
2018-10-05T07:14:45.011Z,5.50
2018-10-05T07:15:45.101Z,5.60
2018-10-05T07:16:44.999Z,5.30
2018-10-05T07:17:45.041Z,5.40
2018-10-05T07:18:45.057Z,5.40
2018-10-05T07:19:45.036Z,5.70
2018-10-05T07:20:45.040Z,5.50
2018-10-05T07:21:45.033Z,5.60
2018-10-05T07:22:45.055Z,5.50
2018-10-05T07:23:45.018Z,6.00
2018-10-05T07:24:45.033Z,5.80
2018-10-05T07:25:45.065Z,5.90
2018-10-05T07:26:45.050Z,5.60
2018-10-05T07:27:45.050Z,5.60
2018-10-05T07:28:45.108Z,5.40
2018-10-05T07:29:45.059Z,5.60
2018-10-05T07:30:45.057Z,5.40
2018-10-05T07:31:45.060Z,5.30
2018-10-05T07:32:45.113Z,5.40
2018-10-05T07:33:45.048Z,5.70
2018-10-05T07:34:45.055Z,5.30
2018-10-05T07:35:45.130Z,5.50
2018-10-05T07:36:45.066Z,5.60
2018-10-05T07:37:45.082Z,5.00
2018-10-05T07:38:45.129Z,5.00
2018-10-05T07:39:45.097Z,5.20
2018-10-05T07:40:45.089Z,5.20
2018-10-05T07:41:45.098Z,5.20
2018-10-05T07:42:45.090Z,5.40
2018-10-05T07:43:45.130Z,5.40
2018-10-05T07:44:45.103Z,5.60
2018-10-05T07:45:45.133Z,5.60
2018-10-05T07:46:45.120Z,5.30
2018-10-05T07:47:45.108Z,5.00
2018-10-05T07:48:45.137Z,5.30
2018-10-05T07:49:45.119Z,5.20
2018-10-05T07:50:45.127Z,5.20
2018-10-05T07:51:45.175Z,5.60
2018-10-05T07:52:45.133Z,5.30
2018-10-05T07:53:45.163Z,5.30
2018-10-05T07:54:45.147Z,5.50
2018-10-05T07:55:45.160Z,5.50
2018-10-05T07:56:45.161Z,5.50
2018-10-05T07:57:45.179Z,5.70
2018-10-05T07:58:45.194Z,5.50
2018-10-05T07:59:45.170Z,5.30
2018-10-05T08:00:45.181Z,5.30
2018-10-05T08:01:45.197Z,5.00
2018-10-05T08:02:45.200Z,5.60
2018-10-05T08:03:45.232Z,5.40
2018-10-05T08:04:45.214Z,5.50
2018-10-05T08:05:45.216Z,5.50
2018-10-05T08:06:45.226Z,5.50
2018-10-05T08:07:45.263Z,5.30
2018-10-05T08:08:45.240Z,5.30
2018-10-05T08:09:45.256Z,5.50
2018-10-05T08:10:45.283Z,4.70
2018-10-05T08:11:45.264Z,5.60
2018-10-05T08:12:45.275Z,5.10
2018-10-05T08:13:45.315Z,5.30
2018-10-05T08:14:45.289Z,5.70
2018-10-05T08:15:45.292Z,5.10
2018-10-05T08:16:45.321Z,5.30
2018-10-05T08:17:45.319Z,5.70
2018-10-05T08:18:45.345Z,5.00
2018-10-05T08:19:45.330Z,5.20
2018-10-05T08:20:45.345Z,5.00
2018-10-05T08:21:45.345Z,5.10
2018-10-05T08:22:45.353Z,4.90
2018-10-05T08:23:45.388Z,5.10
2018-10-05T08:24:45.373Z,5.30
2018-10-05T08:25:45.380Z,5.40
2018-10-05T08:26:45.392Z,5.10
2018-10-05T08:27:45.408Z,5.00
2018-10-05T08:28:45.435Z,5.10
2018-10-05T08:29:45.416Z,5.30
2018-10-05T08:30:45.428Z,5.30
2018-10-05T08:31:45.438Z,5.00
2018-10-05T08:32:45.452Z,5.10
2018-10-05T08:33:45.489Z,5.30
2018-10-05T08:34:45.470Z,4.70
2018-10-05T08:35:45.481Z,4.80
2018-10-05T08:36:45.490Z,5.00
2018-10-05T08:37:45.506Z,5.00
2018-10-05T08:38:45.542Z,4.90
2018-10-05T08:39:45.585Z,4.90
2018-10-05T08:40:45.537Z,4.80
2018-10-05T08:41:45.550Z,4.80
2018-10-05T08:42:45.560Z,4.90
2018-10-05T08:43:45.596Z,4.80
2018-10-05T08:44:45.578Z,4.80
2018-10-05T08:45:45.648Z,4.80
2018-10-05T08:46:45.602Z,4.70
2018-10-05T08:47:45.635Z,4.70
2018-10-05T08:48:45.657Z,4.60
2018-10-05T08:49:45.638Z,4.70
2018-10-05T08:50:45.651Z,4.10
2018-10-05T08:51:45.718Z,4.30
2018-10-05T08:52:45.678Z,4.30
2018-10-05T08:53:45.714Z,4.30
2018-10-05T08:54:45.706Z,4.10
2018-10-05T08:55:45.718Z,3.90
2018-10-05T08:56:45.725Z,4.00
2018-10-05T08:57:45.736Z,4.00
2018-10-05T08:58:45.777Z,4.10
2018-10-05T08:59:45.771Z,4.50
2018-10-05T09:00:45.777Z,4.00
2018-10-05T09:01:45.788Z,3.90
2018-10-05T09:02:45.808Z,3.90
2018-10-05T09:03:45.847Z,4.10
2018-10-05T09:04:45.828Z,4.00
2018-10-05T09:05:45.887Z,4.10
2018-10-05T09:06:45.854Z,4.10
2018-10-05T09:07:45.869Z,4.30
2018-10-05T09:08:45.915Z,3.90
2018-10-05T09:09:45.900Z,3.70
2018-10-05T09:10:45.918Z,3.40
2018-10-05T09:11:45.928Z,3.70
2018-10-05T09:12:45.947Z,3.70
2018-10-05T09:13:45.983Z,3.70
2018-10-05T09:14:45.971Z,3.70
2018-10-05T09:15:45.983Z,4.10
2018-10-05T09:16:46.000Z,4.00
2018-10-05T09:17:46.040Z,3.80
2018-10-05T09:18:46.058Z,3.90
2018-10-05T09:19:46.040Z,3.70
2018-10-05T09:20:46.055Z,4.30
2018-10-05T09:21:46.075Z,3.80
2018-10-05T09:22:46.091Z,3.80
2018-10-05T09:23:46.136Z,3.60
2018-10-05T09:24:46.115Z,3.70
2018-10-05T09:25:46.130Z,4.50
2018-10-05T09:26:46.165Z,4.10
2018-10-05T09:27:46.248Z,4.10
2018-10-05T09:28:46.218Z,4.00
2018-10-05T09:29:46.229Z,4.60
2018-10-05T09:30:48.286Z,4.40
2018-10-05T09:31:48.701Z,4.40
2018-10-05T09:32:46.256Z,3.80
2018-10-05T09:33:46.877Z,3.70
2018-10-05T09:34:46.285Z,4.20
2018-10-05T09:35:46.302Z,4.00
2018-10-05T09:36:47.855Z,3.90
2018-10-05T09:37:46.492Z,3.60
2018-10-05T09:38:47.826Z,3.90
2018-10-05T09:39:46.365Z,4.00
2018-10-05T09:40:46.385Z,3.70
2018-10-05T09:41:46.394Z,4.00
2018-10-05T09:42:46.414Z,3.70
2018-10-05T09:43:46.460Z,3.70
2018-10-05T09:44:46.467Z,3.60
2018-10-05T09:45:46.463Z,3.60
2018-10-05T09:46:46.480Z,3.90
2018-10-05T09:47:46.548Z,3.60
2018-10-05T09:48:46.574Z,3.50
2018-10-05T09:49:46.649Z,2.80
2018-10-05T09:50:46.549Z,3.30
2018-10-05T09:51:46.786Z,3.40
2018-10-05T09:52:47.343Z,3.40
2018-10-05T09:53:47.477Z,3.70
2018-10-05T09:54:47.315Z,3.10
2018-10-05T09:55:47.473Z,3.20
2018-10-05T09:56:47.787Z,3.50
2018-10-05T09:57:46.683Z,3.30
2018-10-05T09:58:46.754Z,3.40
2018-10-05T09:59:46.751Z,3.70
2018-10-05T10:00:46.741Z,3.40
2018-10-05T10:01:46.749Z,3.30
2018-10-05T10:02:47.320Z,3.40
2018-10-05T10:03:46.814Z,3.50
2018-10-05T10:04:46.804Z,3.30
2018-10-05T10:05:46.852Z,2.90
2018-10-05T10:06:46.845Z,2.90
2018-10-05T10:07:47.081Z,3.30
2018-10-05T10:08:46.901Z,3.00
2018-10-05T10:09:46.898Z,3.10
2018-10-05T10:10:46.903Z,2.90
2018-10-05T10:11:46.913Z,3.10
2018-10-05T10:12:46.948Z,3.10
2018-10-05T10:13:47.025Z,3.10
2018-10-05T10:14:46.996Z,3.20
2018-10-05T10:15:46.994Z,3.70
2018-10-05T10:16:47.045Z,3.20
2018-10-05T10:17:47.044Z,3.30
2018-10-05T10:18:47.114Z,3.30
2018-10-05T10:19:47.084Z,3.10
2018-10-05T10:20:47.107Z,3.60
2018-10-05T10:21:47.108Z,3.10
2018-10-05T10:22:47.202Z,2.80
2018-10-05T10:23:47.175Z,2.90
2018-10-05T10:24:47.177Z,2.70
2018-10-05T10:25:47.186Z,2.70
2018-10-05T10:26:47.196Z,2.90
2018-10-05T10:27:47.382Z,2.80
2018-10-05T10:28:47.384Z,2.60
2018-10-05T10:29:47.286Z,3.20
2018-10-05T10:30:47.277Z,2.80
2018-10-05T10:31:47.297Z,2.80
2018-10-05T10:32:47.309Z,2.50
2018-10-05T10:33:47.433Z,2.40
2018-10-05T10:34:47.408Z,2.80
2018-10-05T10:35:47.361Z,2.60
2018-10-05T10:36:47.448Z,2.40
2018-10-05T10:37:47.425Z,2.30
2018-10-05T10:38:47.460Z,2.20
2018-10-05T10:39:47.466Z,2.20
2018-10-05T10:40:47.473Z,2.50
2018-10-05T10:41:47.478Z,2.20
2018-10-05T10:42:47.501Z,2.20
2018-10-05T10:43:47.559Z,2.30
2018-10-05T10:44:47.542Z,2.10
2018-10-05T10:45:47.557Z,2.20
2018-10-05T10:46:47.578Z,2.20
2018-10-05T10:47:47.624Z,2.10
2018-10-05T10:48:47.639Z,2.00
2018-10-05T10:49:47.678Z,2.00
2018-10-05T10:50:47.654Z,2.10
2018-10-05T10:51:47.672Z,2.00
2018-10-05T10:52:47.682Z,2.20
2018-10-05T10:53:47.703Z,2.00
2018-10-05T10:54:47.769Z,2.00
2018-10-05T10:55:47.740Z,2.10
2018-10-05T10:56:47.746Z,2.00
2018-10-05T10:57:47.783Z,2.10
2018-10-05T10:58:47.790Z,1.80
2018-10-05T10:59:47.840Z,2.40
2018-10-05T11:00:47.900Z,1.90
2018-10-05T11:01:47.836Z,1.90
2018-10-05T11:02:47.858Z,1.90
2018-10-05T11:03:47.893Z,2.30
2018-10-05T11:04:47.982Z,2.10
2018-10-05T11:05:47.946Z,1.90
2018-10-05T11:06:47.933Z,1.80
2018-10-05T11:07:48.933Z,1.90
2018-10-05T11:08:47.976Z,1.70
2018-10-05T11:09:48.005Z,1.70
2018-10-05T11:10:48.002Z,1.70
2018-10-05T11:11:48.021Z,1.90
2018-10-05T11:12:48.037Z,1.80
2018-10-05T11:13:48.058Z,1.80
2018-10-05T11:14:48.119Z,2.00
2018-10-05T11:15:48.087Z,1.70
2018-10-05T11:16:48.114Z,1.60
2018-10-05T11:17:48.130Z,2.50
2018-10-05T11:18:48.161Z,1.90
2018-10-05T11:19:48.199Z,1.80
2018-10-05T11:20:48.186Z,1.80
2018-10-05T11:21:48.192Z,1.80
2018-10-05T11:22:48.872Z,1.90
2018-10-05T11:23:48.238Z,1.70
2018-10-05T11:24:48.275Z,1.70
2018-10-05T11:25:48.272Z,2.10
2018-10-05T11:26:48.288Z,1.90
2018-10-05T11:27:48.307Z,1.60
2018-10-05T11:28:48.323Z,1.90
2018-10-05T11:29:48.453Z,1.80
2018-10-05T11:30:48.371Z,1.60
2018-10-05T11:31:48.386Z,1.60
2018-10-05T11:32:48.397Z,1.70
2018-10-05T11:33:48.438Z,1.80
2018-10-05T11:34:48.463Z,1.60
2018-10-05T11:35:48.494Z,1.40
2018-10-05T11:36:48.466Z,1.70
2018-10-05T11:37:48.492Z,1.60
2018-10-05T11:38:48.490Z,1.90
2018-10-05T11:39:48.568Z,2.10
2018-10-05T11:40:48.609Z,1.80
2018-10-05T11:41:48.553Z,1.80
2018-10-05T11:42:48.643Z,1.50
2018-10-05T11:43:48.597Z,1.50
2018-10-05T11:44:48.657Z,1.50
2018-10-05T11:45:48.681Z,1.30
2018-10-05T11:46:48.677Z,1.60
2018-10-05T11:47:48.691Z,1.40
2018-10-05T11:48:48.660Z,1.50
2018-10-05T11:49:48.722Z,1.50
2018-10-05T11:50:48.752Z,1.50
2018-10-05T11:51:48.727Z,1.30
2018-10-05T11:52:48.748Z,1.40
2018-10-05T11:53:48.777Z,1.40
2018-10-05T11:54:48.828Z,1.50
2018-10-05T11:55:48.904Z,1.50
2018-10-05T11:56:48.819Z,1.40
2018-10-05T11:57:48.828Z,1.70
2018-10-05T11:58:48.828Z,1.30
2018-10-05T11:59:48.952Z,1.40
2018-10-05T12:00:48.866Z,1.50
2018-10-05T12:01:48.890Z,1.50
2018-10-05T12:02:48.979Z,1.20
2018-10-05T12:03:48.921Z,1.40
2018-10-05T12:04:48.956Z,1.40
2018-10-05T12:05:48.946Z,1.60
2018-10-05T12:06:48.971Z,1.50
2018-10-05T12:07:48.980Z,1.30
2018-10-05T12:08:49.010Z,1.40
2018-10-05T12:09:49.055Z,1.60
2018-10-05T12:10:49.068Z,1.60
2018-10-05T12:11:49.887Z,1.80
2018-10-05T12:12:49.095Z,1.70
2018-10-05T12:13:49.145Z,1.40
2018-10-05T12:14:49.172Z,1.50
2018-10-05T12:15:49.138Z,1.00
2018-10-05T12:16:49.166Z,2.00
2018-10-05T12:17:49.179Z,5.10
2018-10-05T12:18:49.187Z,1.70
2018-10-05T12:19:49.271Z,1.50
2018-10-05T12:20:49.224Z,1.60
2018-10-05T12:21:49.231Z,1.60
2018-10-05T12:22:49.246Z,1.50
2018-10-05T12:23:49.288Z,1.60
2018-10-05T12:24:49.293Z,1.60
2018-10-05T12:25:49.337Z,1.40
2018-10-05T12:26:49.317Z,1.70
2018-10-05T12:27:49.327Z,1.50
2018-10-05T12:28:49.350Z,1.50
2018-10-05T12:29:49.359Z,1.60
2018-10-05T12:30:49.398Z,1.60
2018-10-05T12:31:49.481Z,1.50
2018-10-05T12:32:49.406Z,1.80
2018-10-05T12:33:49.423Z,1.70
2018-10-05T12:34:49.445Z,1.70
2018-10-05T12:35:49.497Z,2.90
2018-10-05T12:36:49.480Z,1.50
2018-10-05T12:37:49.530Z,1.80
2018-10-05T12:38:49.541Z,1.50
2018-10-05T12:39:51.764Z,1.30
2018-10-05T12:40:49.596Z,1.60
2018-10-05T12:41:49.597Z,1.30
2018-10-05T12:42:49.598Z,1.70
2018-10-05T12:43:57.267Z,3.70
2018-10-05T12:44:52.446Z,2.00
2018-10-05T12:45:50.266Z,1.40
2018-10-05T12:46:56.552Z,1.70
2018-10-05T12:47:53.514Z,1.90
2018-10-05T12:48:49.914Z,1.70
2018-10-05T12:49:50.943Z,1.50
2018-10-05T12:50:50.767Z,1.60
2018-10-05T12:51:50.418Z,1.60
2018-10-05T12:52:49.744Z,2.80
2018-10-05T12:53:49.782Z,3.30
2018-10-05T12:54:49.770Z,1.90
2018-10-05T12:55:49.781Z,2.00
2018-10-05T12:56:49.833Z,4.00
2018-10-05T12:57:49.813Z,1.50
2018-10-05T12:58:49.839Z,1.50
2018-10-05T12:59:49.855Z,1.00
2018-10-05T13:00:49.892Z,1.50
2018-10-05T13:01:49.891Z,1.70
2018-10-05T13:02:49.896Z,1.60
2018-10-05T13:03:49.943Z,1.50
2018-10-05T13:04:49.946Z,1.40
2018-10-05T13:05:49.971Z,1.50
2018-10-05T13:06:49.963Z,1.40
2018-10-05T13:07:49.977Z,1.90
2018-10-05T13:08:50.908Z,1.70
2018-10-05T13:09:50.039Z,2.30
2018-10-05T13:10:50.053Z,1.70
2018-10-05T13:11:50.045Z,1.60